Time;durP1;ratioP1;P1;durP2;ratioP2;P2;SDS_P1;SDS_P2;PMS_P1;PMS_P2;Temp;Humidity;BMP_temperature;BMP_pressure;BME280_temperature;BME280_humidity;BME280_pressure;Samples;Min_cycle;Max_cycle;Signal;HPM_P1;HPM_P2
2022/04/26 06:41:47;;;;;;;31.20;17.80;;;;;;;7.51;99.39;100829.20;106131;1274;60235;-67
2022/04/26 06:44:13;;;;;;;27.80;16.20;;;;;;;7.70;98.74;100835.36;103662;1287;61687;-68
2022/04/26 06:46:40;;;;;;;30.50;17.00;;;;;;;7.87;97.63;100832.02;104133;1285;62046;-69
2022/04/26 06:49:07;;;;;;;26.00;14.80;;;;;;;8.03;97.09;100838.66;104187;1283;72199;-68
2022/04/26 06:51:35;;;;;;;30.60;18.30;;;;;;;8.13;95.97;100835.13;104155;1275;76660;-68
2022/04/26 06:54:01;;;;;;;32.00;18.60;;;;;;;8.27;95.65;100835.38;103967;1275;61248;-70
2022/04/26 06:56:30;;;;;;;36.20;19.50;;;;;;;8.41;95.34;100838.08;104418;1279;165021;-75
2022/04/26 06:59:11;;;;;;;26.50;13.60;;;;;;;8.58;94.64;100843.86;104741;1273;76780;-73
2022/04/26 07:01:39;;;;;;;30.70;17.50;;;;;;;8.71;94.23;100848.77;104189;1287;71455;-70
2022/04/26 07:04:08;;;;;;;26.70;16.10;;;;;;;8.85;93.65;100853.34;104229;1287;71882;-77
2022/04/26 07:06:38;;;;;;;26.90;14.90;;;;;;;8.97;92.94;100855.27;103929;1287;61386;-75
2022/04/26 07:09:14;;;;;;;21.50;12.20;;;;;;;9.08;91.92;100853.11;104282;1287;61338;-77
2022/04/26 07:11:43;;;;;;;25.80;14.20;;;;;;;9.16;91.27;100855.39;104191;1287;76365;-74
2022/04/26 07:14:11;;;;;;;29.10;15.90;;;;;;;9.25;91.27;100857.52;104345;1285;72401;-75
2022/04/26 07:16:48;;;;;;;19.90;13.50;;;;;;;9.38;91.26;100856.32;103922;1287;72890;-73
2022/04/26 07:19:18;;;;;;;31.30;17.30;;;;;;;9.53;90.83;100858.72;104123;1288;62189;-72
2022/04/26 07:21:51;;;;;;;27.00;14.80;;;;;;;9.67;89.87;100860.28;103959;1287;62398;-75
2022/04/26 07:24:33;;;;;;;25.90;15.60;;;;;;;9.83;89.52;100855.20;104273;1287;74953;-74
2022/04/26 07:27:03;;;;;;;25.50;15.00;;;;;;;9.96;88.58;100862.08;104207;1287;72601;-74
2022/04/26 07:29:41;;;;;;;22.40;13.80;;;;;;;10.08;87.28;100859.17;104114;1287;73240;-75
2022/04/26 07:32:10;;;;;;;20.10;12.10;;;;;;;10.22;87.71;100861.72;104176;1287;63090;-74
2022/04/26 07:34:37;;;;;;;21.40;12.30;;;;;;;10.37;87.13;100860.48;104185;1287;61618;-73
2022/04/26 07:37:06;;;;;;;20.30;12.00;;;;;;;10.51;86.16;100860.32;103986;1287;76248;-73
2022/04/26 07:39:35;;;;;;;19.10;12.50;;;;;;;10.66;85.91;100858.85;104167;1287;71407;-76
2022/04/26 07:42:05;;;;;;;17.30;11.20;;;;;;;10.83;85.79;100858.48;104249;1287;72844;-74
2022/04/26 07:44:34;;;;;;;18.80;12.80;;;;;;;11.00;84.60;100860.46;104139;1287;63362;-70
2022/04/26 07:47:05;;;;;;;17.30;11.20;;;;;;;11.16;83.70;100856.10;104303;1285;61718;-71
2022/04/26 07:49:34;;;;;;;19.10;11.50;;;;;;;11.28;82.49;100854.29;104727;1287;76034;-71
2022/04/26 07:52:02;;;;;;;18.30;12.40;;;;;;;11.41;81.50;100856.23;104026;1287;71172;-71
2022/04/26 07:54:28;;;;;;;19.20;11.70;;;;;;;11.56;81.26;100857.37;104144;1286;74047;-70
2022/04/26 07:56:55;;;;;;;17.70;11.30;;;;;;;11.70;80.10;100855.16;104188;1285;61399;-72
2022/04/26 07:59:28;;;;;;;18.60;12.20;;;;;;;11.84;79.05;100858.70;104222;1287;61602;-74
2022/04/26 08:01:56;;;;;;;18.80;11.60;;;;;;;11.95;78.23;100857.37;104064;1287;75079;-71
2022/04/26 08:04:23;;;;;;;16.70;10.70;;;;;;;12.09;78.30;100857.48;104243;1287;71605;-70
2022/04/26 08:06:49;;;;;;;16.80;10.30;;;;;;;12.27;78.25;100858.64;104153;1287;72335;-73
2022/04/26 08:09:16;;;;;;;12.40;8.70;;;;;;;12.42;77.62;100860.73;104231;1287;62144;-71
2022/04/26 08:11:42;;;;;;;16.60;10.30;;;;;;;12.55;75.83;100863.42;104193;1287;61424;-71
2022/04/26 08:14:20;;;;;;;15.90;10.10;;;;;;;12.69;75.64;100867.58;104169;1287;61427;-71
2022/04/26 08:16:46;;;;;;;14.00;9.00;;;;;;;12.89;75.63;100870.17;104019;1287;72408;-71
2022/04/26 08:19:13;;;;;;;14.60;8.50;;;;;;;13.05;74.68;100876.09;104164;1287;73908;-72
2022/04/26 08:21:40;;;;;;;12.60;8.80;;;;;;;13.18;73.06;100880.30;104075;1288;63597;-70
2022/04/26 08:29:37;;;;;;;;;;;;;;;13.51;72.80;100874.02;104246;1287;72602;-69
2022/04/26 08:32:05;;;;;;;11.50;6.90;;;;;;;13.58;69.61;100874.08;104215;1287;72996;-68
2022/04/26 08:34:32;;;;;;;13.80;6.20;;;;;;;13.67;66.86;100874.19;103964;1287;62144;-72
2022/04/26 08:36:59;;;;;;;9.20;6.30;;;;;;;13.72;65.27;100877.32;104205;1287;62214;-71
2022/04/26 08:39:26;;;;;;;10.70;6.80;;;;;;;13.80;65.96;100883.14;104039;1288;75950;-71
2022/04/26 08:42:03;;;;;;;10.50;6.50;;;;;;;13.89;65.95;100883.50;104125;1287;61414;-74
2022/04/26 08:44:30;;;;;;;9.70;6.80;;;;;;;14.06;66.19;100881.96;104671;1287;74242;-73
2022/04/26 08:52:47;;;;;;;10.20;7.00;;;;;;;14.46;65.04;100883.77;104001;1287;76052;-70
2022/04/26 08:55:15;;;;;;;10.50;7.10;;;;;;;14.62;63.97;100883.48;104128;1287;71622;-73
2022/04/26 08:57:41;;;;;;;14.20;9.00;;;;;;;14.70;62.92;100886.95;104134;1287;74040;-74
2022/04/26 09:00:11;;;;;;;11.40;8.40;;;;;;;14.80;62.83;100888.98;104237;1287;60671;-71
2022/04/26 09:03:00;;;;;;;12.50;7.90;;;;;;;14.93;63.46;100894.94;104387;1287;61486;-73
2022/04/26 09:05:28;;;;;;;9.50;6.60;;;;;;;15.15;61.54;100894.23;104308;1287;75421;-72
2022/04/26 09:07:58;;;;;;;8.70;6.20;;;;;;;15.29;59.95;100893.59;104213;1287;71527;-73
2022/04/26 09:10:26;;;;;;;13.60;7.80;;;;;;;15.43;58.09;100886.92;104415;1286;74037;-73
2022/04/26 09:13:06;;;;;;;6.30;4.50;;;;;;;15.50;57.06;100890.80;104265;1287;61456;-72
2022/04/26 09:15:56;;;;;;;6.40;4.00;;;;;;;15.49;56.45;100893.92;104514;1287;61311;-74
2022/04/26 09:18:30;;;;;;;8.70;5.90;;;;;;;15.52;53.90;100889.69;104099;1287;75308;-72
2022/04/26 09:21:08;;;;;;;7.40;3.90;;;;;;;15.59;54.91;100889.10;104494;1287;72491;-71
2022/04/26 09:23:38;;;;;;;5.90;3.70;;;;;;;15.78;53.93;100893.96;104287;1287;74330;-71
2022/04/26 09:26:14;;;;;;;4.70;3.20;;;;;;;16.01;54.37;100898.00;104379;1287;61396;-70
2022/04/26 09:28:51;;;;;;;5.40;3.90;;;;;;;16.27;53.13;100889.70;104450;1287;61310;-70
2022/04/26 09:31:24;;;;;;;4.40;3.40;;;;;;;16.59;52.61;100890.73;104423;1287;75018;-70
2022/04/26 09:34:05;;;;;;;4.60;3.30;;;;;;;16.93;50.47;100893.05;104296;1287;72402;-72
2022/04/26 09:36:42;;;;;;;7.10;3.60;;;;;;;17.22;48.35;100890.80;104287;1287;74174;-70
2022/04/26 09:39:09;;;;;;;5.00;3.70;;;;;;;17.36;45.63;100889.92;104337;1288;61267;-71
2022/04/26 09:41:37;;;;;;;7.30;4.40;;;;;;;17.49;46.46;100891.66;103568;1287;495442;-69
2022/04/26 09:44:09;;;;;;;5.10;3.60;;;;;;;17.63;46.86;100896.56;104544;1287;75196;-71
2022/04/26 09:46:57;;;;;;;5.90;3.50;;;;;;;17.61;46.87;100890.42;104299;1287;70328;-69
2022/04/26 09:49:25;;;;;;;5.20;2.80;;;;;;;17.57;46.68;100897.22;104046;1288;74114;-70
2022/04/26 09:51:58;;;;;;;5.80;4.00;;;;;;;17.54;44.67;100900.00;104309;1286;61709;-69
2022/04/26 09:54:26;;;;;;;5.40;3.60;;;;;;;17.69;46.39;100902.99;104158;1288;61492;-70
2022/04/26 09:56:53;;;;;;;7.50;3.90;;;;;;;17.85;46.62;100902.95;104418;1287;74991;-69
2022/04/26 09:59:27;;;;;;;4.80;2.70;;;;;;;17.85;43.74;100902.91;104349;1287;71789;-71
2022/04/26 10:02:02;;;;;;;3.60;2.90;;;;;;;17.71;42.88;100903.98;104811;1287;73060;-71
2022/04/26 10:04:37;;;;;;;4.80;2.80;;;;;;;17.63;43.34;100906.27;104274;1287;61407;-70
2022/04/26 10:07:13;;;;;;;4.00;2.80;;;;;;;17.58;44.04;100908.89;105743;1287;61272;-73
2022/04/26 10:09:41;;;;;;;5.50;3.20;;;;;;;17.59;43.87;100906.34;104278;1287;75567;-69
2022/04/26 10:12:12;;;;;;;8.20;3.80;;;;;;;17.62;44.45;100910.39;103914;1288;71473;-73
2022/04/26 10:14:39;;;;;;;5.40;3.30;;;;;;;17.65;44.96;100906.77;104292;1287;73564;-69
2022/04/26 10:17:13;;;;;;;7.30;3.80;;;;;;;17.65;45.18;100905.55;104365;1287;61717;-69
2022/04/26 10:19:45;;;;;;;5.50;4.10;;;;;;;17.63;45.01;100905.36;104299;1287;61306;-72
2022/04/26 10:22:15;;;;;;;6.10;3.60;;;;;;;17.57;45.26;100907.04;104246;1287;75467;-72
2022/04/26 10:25:08;;;;;;;4.70;3.20;;;;;;;17.48;44.78;100908.24;104335;1287;73329;-69
2022/04/26 10:27:35;;;;;;;5.30;3.40;;;;;;;17.35;44.70;100906.23;104391;1287;73014;-70
2022/04/26 10:30:14;;;;;;;6.00;3.40;;;;;;;17.17;45.40;100902.05;104317;1287;61711;-70
2022/04/26 10:32:55;;;;;;;6.40;3.70;;;;;;;17.05;46.21;100906.08;104364;1287;61337;-70
2022/04/26 10:35:24;;;;;;;7.00;3.40;;;;;;;17.10;46.77;100906.20;104340;1287;74135;-71
2022/04/26 10:38:16;;;;;;;5.70;3.20;;;;;;;17.17;46.21;100906.35;104358;1287;71466;-71
2022/04/26 10:41:09;;;;;;;5.10;3.40;;;;;;;17.25;44.96;100904.49;104556;1287;74298;-69
2022/04/26 10:43:41;;;;;;;5.50;3.60;;;;;;;17.48;44.72;100899.33;104351;1286;61808;-70
2022/04/26 10:46:12;;;;;;;4.50;3.00;;;;;;;17.79;44.16;100900.43;104257;1287;61846;-69
2022/04/26 10:48:39;;;;;;;5.60;3.50;;;;;;;18.01;42.91;100900.73;104478;1286;75678;-69
2022/04/26 10:51:33;;;;;;;5.70;3.70;;;;;;;18.18;41.82;100897.28;104193;1287;72329;-71
2022/04/26 10:54:00;;;;;;;2.90;2.20;;;;;;;18.41;41.80;100896.52;104279;1287;74028;-69
2022/04/26 10:56:27;;;;;;;3.60;2.40;;;;;;;18.53;41.55;100897.10;104532;1287;61549;-69
2022/04/26 10:58:54;;;;;;;5.00;3.30;;;;;;;18.68;40.16;100896.86;104343;1286;61208;-71
2022/04/26 11:01:27;;;;;;;4.30;2.70;;;;;;;18.61;39.09;100899.17;104378;1287;76078;-69
2022/04/26 11:04:05;;;;;;;5.70;3.20;;;;;;;18.37;39.12;100903.27;104183;1287;71532;-72
2022/04/26 11:06:37;;;;;;;5.00;3.00;;;;;;;18.14;40.04;100908.56;104350;1287;74134;-70
2022/04/26 11:09:19;;;;;;;4.20;3.00;;;;;;;17.83;41.34;100903.87;104706;1287;61460;-70
2022/04/26 11:11:48;;;;;;;5.00;2.60;;;;;;;17.54;42.12;100908.17;104411;1288;61284;-71
2022/04/26 11:14:29;;;;;;;;;;;;;;;17.27;43.29;100908.73;104213;1287;76289;-70
2022/04/26 11:17:01;;;;;;;4.90;3.20;;;;;;;16.97;43.82;100913.27;104155;1288;72432;-72
2022/04/26 11:19:53;;;;;;;4.20;3.40;;;;;;;16.75;44.81;100917.40;104281;1287;74525;-74
2022/04/26 11:22:21;;;;;;;5.50;3.60;;;;;;;16.51;45.30;100918.93;104091;1287;61284;-71
2022/04/26 11:30:41;;;;;;;;;;;;;;;;;;;;;
2022/04/26 11:33:32;;;;;;;6.80;3.40;;;;;;;15.92;47.34;100921.13;104320;1287;74034;-74
2022/04/26 11:36:01;;;;;;;7.90;3.90;;;;;;;15.73;49.86;100929.33;104270;1287;61175;-72
2022/04/26 11:38:30;;;;;;;5.80;3.40;;;;;;;15.61;50.47;100930.48;104278;1287;61338;-73
2022/04/26 11:41:24;;;;;;;7.60;4.40;;;;;;;15.54;51.18;100930.09;104200;1286;76168;-71
2022/04/26 11:44:05;;;;;;;14.30;5.40;;;;;;;15.42;50.33;100929.66;104417;1287;74158;-73
2022/04/26 11:46:31;;;;;;;43.00;11.90;;;;;;;15.39;50.54;100930.06;104742;1287;72853;-71
2022/04/26 11:49:18;;;;;;;11.10;4.80;;;;;;;15.39;50.20;100932.92;104256;1287;61338;-72
2022/04/26 11:52:00;;;;;;;6.50;3.80;;;;;;;15.45;50.08;100933.98;104101;1287;61682;-72
2022/04/26 11:54:39;;;;;;;4.20;2.80;;;;;;;15.52;48.85;100937.81;104316;1287;76065;-72
2022/04/26 11:57:05;;;;;;;22.30;5.80;;;;;;;15.67;49.28;100935.88;104203;1287;71313;-73
2022/04/26 11:59:35;;;;;;;32.30;9.40;;;;;;;15.91;49.16;100933.27;104265;1287;74470;-73
2022/04/26 12:02:07;;;;;;;9.10;4.80;;;;;;;16.20;48.85;100933.45;104201;1287;61310;-72
2022/04/26 12:05:03;;;;;;;9.80;4.90;;;;;;;16.37;48.29;100935.09;104443;1287;61413;-72
2022/04/26 12:07:31;;;;;;;11.30;4.30;;;;;;;16.55;48.45;100932.79;104150;1287;76187;-69
2022/04/26 12:10:00;;;;;;;25.30;8.10;;;;;;;16.70;47.64;100935.84;104199;1287;72737;-67
2022/04/26 12:12:27;;;;;;;9.70;4.20;;;;;;;16.83;47.10;100943.16;104245;1285;74561;-69
2022/04/26 12:14:55;;;;;;;8.00;3.30;;;;;;;16.94;46.82;100948.17;104147;1287;61779;-68
2022/04/26 12:17:22;;;;;;;4.00;2.80;;;;;;;16.94;46.92;100951.92;104229;1287;61208;-68
2022/04/26 12:19:53;;;;;;;6.00;3.40;;;;;;;16.88;47.53;100949.96;104267;1288;75109;-68
2022/04/26 12:22:20;;;;;;;5.30;3.60;;;;;;;16.88;48.22;100954.88;104129;1287;61332;-68
2022/04/26 12:24:49;;;;;;;5.00;3.20;;;;;;;16.81;48.94;100954.53;104309;1287;74838;-67
2022/04/26 12:27:22;;;;;;;5.20;3.10;;;;;;;16.71;48.71;100956.19;104042;1287;61284;-66
2022/04/26 12:29:51;;;;;;;3.90;3.20;;;;;;;16.53;49.07;100958.44;104310;1287;61588;-68
2022/04/26 12:32:28;;;;;;;6.40;3.80;;;;;;;16.39;49.67;100960.64;104379;1287;75364;-71
2022/04/26 12:35:01;;;;;;;4.70;3.30;;;;;;;16.28;50.57;100959.69;104567;1287;70628;-70
2022/04/26 12:37:30;;;;;;;5.40;3.20;;;;;;;16.13;50.59;100964.02;104441;1287;74800;-69
2022/04/26 12:40:17;;;;;;;4.70;3.20;;;;;;;15.94;51.24;100962.45;104209;1287;61756;-71
2022/04/26 12:42:46;;;;;;;5.20;3.10;;;;;;;15.77;51.76;100968.31;104065;1287;60709;-68
2022/04/26 12:45:23;;;;;;;8.40;2.90;;;;;;;15.67;52.21;100965.34;104207;1287;73949;-68
2022/04/26 12:51:33;;;;;;;4.40;2.40;;;;;;;15.14;53.49;100974.31;104259;1287;73012;-67
2022/04/26 12:54:34;;;;;;;4.30;2.30;;;;;;;14.87;53.88;100972.11;104168;1287;61300;-68
2022/04/26 12:57:07;;;;;;;4.70;2.10;;;;;;;14.59;54.50;100974.48;104205;1287;61305;-68
2022/04/26 12:59:39;;;;;;;2.70;1.80;;;;;;;14.41;55.43;100976.65;104157;1287;74889;-69
2022/04/26 13:02:06;;;;;;;3.70;1.70;;;;;;;14.23;55.21;100980.45;104308;1287;72500;-68
2022/04/26 13:04:41;;;;;;;2.40;1.60;;;;;;;14.10;55.72;100981.16;104540;1287;72734;-67
2022/04/26 13:07:09;;;;;;;3.60;1.90;;;;;;;13.96;57.28;100979.38;104260;1287;61636;-71
2022/04/26 13:09:40;;;;;;;6.90;2.60;;;;;;;13.79;57.73;100977.20;104316;1287;61353;-65
2022/04/26 13:12:06;;;;;;;5.10;2.70;;;;;;;13.67;57.87;100977.27;104188;1287;76334;-68
2022/04/26 13:14:38;;;;;;;5.50;2.80;;;;;;;13.55;58.37;100980.00;104155;1287;70108;-70
2022/04/26 13:17:20;;;;;;;3.50;2.10;;;;;;;13.42;58.40;100977.47;104171;1287;73008;-69
2022/04/26 13:19:47;;;;;;;4.50;2.00;;;;;;;13.26;58.72;100972.42;104477;1287;61759;-67
2022/04/26 13:22:17;;;;;;;3.00;1.90;;;;;;;13.14;59.25;100977.42;104203;1287;61292;-70
2022/04/26 13:24:44;;;;;;;3.50;1.90;;;;;;;13.04;59.67;100971.47;104179;1287;76019;-68
2022/04/26 13:27:18;;;;;;;3.90;2.40;;;;;;;12.96;59.91;100973.16;104031;1287;72503;-68
2022/04/26 13:29:44;;;;;;;4.20;2.10;;;;;;;12.95;60.39;100974.70;104224;1287;73261;-67
2022/04/26 13:32:14;;;;;;;3.00;2.10;;;;;;;12.96;60.26;100974.23;104124;1287;61356;-68
2022/04/26 13:34:40;;;;;;;2.20;1.60;;;;;;;12.99;59.43;100975.79;104204;1287;61370;-68
2022/04/26 13:37:07;;;;;;;3.40;1.70;;;;;;;13.05;59.45;100976.19;104275;1285;76005;-73
2022/04/26 13:39:35;;;;;;;6.60;2.10;;;;;;;13.13;59.26;100976.30;104027;1287;71286;-70
2022/04/26 13:42:19;;;;;;;2.90;1.80;;;;;;;13.19;59.04;100974.83;104176;1288;74051;-70
2022/04/26 13:44:46;;;;;;;3.00;1.70;;;;;;;13.30;59.09;100975.55;104139;1287;62175;-70
2022/04/26 13:47:15;;;;;;;2.40;1.70;;;;;;;13.41;59.03;100977.15;104093;1287;61268;-70
2022/04/26 13:49:42;;;;;;;2.80;1.40;;;;;;;13.51;58.73;100981.68;104157;1287;73623;-70
2022/04/26 13:52:17;;;;;;;2.60;1.60;;;;;;;13.58;58.45;100980.19;104204;1287;61308;-72
2022/04/26 13:54:50;;;;;;;2.60;1.40;;;;;;;13.63;58.43;100981.89;104118;1288;72744;-71
2022/04/26 13:57:26;;;;;;;2.70;1.40;;;;;;;13.68;58.15;100980.02;104135;1288;61686;-69
2022/04/26 13:59:58;;;;;;;2.60;1.50;;;;;;;13.71;58.09;100979.41;104064;1288;61320;-70
2022/04/26 14:02:35;;;;;;;3.00;1.60;;;;;;;13.80;57.92;100979.95;104203;1287;76469;-71
2022/04/26 14:05:08;;;;;;;4.10;1.60;;;;;;;13.90;57.22;100977.44;104227;1287;70944;-70
2022/04/26 14:07:55;;;;;;;3.40;1.60;;;;;;;14.05;57.07;100978.23;104201;1287;74500;-68
2022/04/26 14:10:21;;;;;;;2.60;1.50;;;;;;;14.25;56.89;100974.48;105104;1288;61459;-71
2022/04/26 14:12:51;;;;;;;2.40;1.80;;;;;;;14.44;56.43;100975.36;104216;1288;61438;-76
2022/04/26 14:24:03;;;;;;;4.10;1.80;;;;;;;15.14;54.65;100971.11;104133;1287;61204;-71
2022/04/26 14:26:30;;;;;;;2.60;1.90;;;;;;;15.27;53.64;100967.67;104118;1288;61927;-69
2022/04/26 14:28:57;;;;;;;3.90;2.00;;;;;;;15.35;53.42;100966.60;104200;1287;61389;-68
2022/04/26 14:31:24;;;;;;;3.70;2.10;;;;;;;15.46;53.28;100968.04;104296;1287;71526;-70
2022/04/26 14:33:51;;;;;;;3.10;1.70;;;;;;;15.55;52.60;100967.29;104162;1287;72070;-68
2022/04/26 14:36:29;;;;;;;4.00;2.10;;;;;;;15.63;52.46;100966.89;104349;1287;61402;-69
2022/04/26 14:39:16;;;;;;;3.10;1.90;;;;;;;15.75;51.58;100970.91;104120;1287;61510;-69
2022/04/26 14:41:52;;;;;;;3.80;1.50;;;;;;;15.83;50.11;100973.23;104198;1287;75064;-68
2022/04/26 14:44:21;;;;;;;3.70;2.30;;;;;;;15.90;49.00;100976.17;104307;1286;72467;-68
2022/04/26 14:46:53;;;;;;;5.10;2.20;;;;;;;15.98;48.95;100970.13;104147;1287;74154;-67
2022/04/26 14:49:20;;;;;;;3.40;2.10;;;;;;;16.04;46.59;100969.15;104649;1288;61989;-70
2022/04/26 14:51:47;;;;;;;3.00;1.80;;;;;;;16.11;46.50;100967.51;104184;1287;61760;-69
2022/04/26 14:54:17;;;;;;;3.70;1.80;;;;;;;16.22;46.64;100969.20;104144;1287;74220;-70
2022/04/26 14:56:46;;;;;;;2.90;2.10;;;;;;;16.40;46.05;100972.17;103954;1288;71409;-67
2022/04/26 14:59:18;;;;;;;2.60;1.60;;;;;;;16.58;45.90;100973.17;104303;1287;73074;-69
2022/04/26 15:01:49;;;;;;;4.40;2.20;;;;;;;16.75;45.81;100970.89;104173;1287;61916;-71
2022/04/26 15:04:17;;;;;;;4.60;2.30;;;;;;;16.84;45.48;100965.38;104513;1287;61477;-71
2022/04/26 15:06:44;;;;;;;4.40;2.60;;;;;;;16.95;45.48;100970.27;104087;1287;75471;-68
2022/04/26 15:17:33;;;;;;;4.30;2.40;;;;;;;17.35;44.86;100969.67;103987;1287;61651;-67
2022/04/26 15:20:02;;;;;;;4.60;2.80;;;;;;;17.67;44.16;100970.34;104116;1287;75964;-65
2022/04/26 15:22:29;;;;;;;3.90;2.70;;;;;;;18.30;44.43;100970.98;104163;1287;72721;-66
2022/04/26 15:24:58;;;;;;;6.30;3.30;;;;;;;18.97;42.24;100963.36;104323;1287;73098;-65
2022/04/26 15:27:27;;;;;;;4.60;2.90;;;;;;;19.23;41.99;100967.39;104367;1287;61397;-66
2022/04/26 15:29:54;;;;;;;5.20;3.00;;;;;;;19.69;40.09;100967.96;104254;1287;62188;-68
2022/04/26 15:32:23;;;;;;;4.90;2.80;;;;;;;19.92;39.09;100970.55;104224;1286;76041;-66
2022/04/26 15:34:50;;;;;;;5.80;3.00;;;;;;;19.84;39.10;100971.70;104102;1287;71428;-65
2022/04/26 15:37:17;;;;;;;5.10;3.50;;;;;;;19.68;38.34;100974.33;104024;1288;73964;-65
2022/04/26 15:39:47;;;;;;;3.40;2.60;;;;;;;19.42;38.85;100976.69;103886;1287;61741;-66
2022/04/26 15:42:25;;;;;;;6.00;3.00;;;;;;;19.16;39.78;100975.58;104181;1287;61636;-66
2022/04/26 15:44:54;;;;;;;6.30;3.60;;;;;;;18.97;39.99;100978.21;104193;1287;76198;-66
2022/04/26 15:47:24;;;;;;;3.20;2.60;;;;;;;18.79;40.62;100983.18;104210;1287;71678;-67
2022/04/26 15:49:54;;;;;;;4.50;3.20;;;;;;;18.57;41.43;100983.30;104633;1287;72902;-68
2022/04/26 15:52:26;;;;;;;3.80;2.80;;;;;;;18.35;42.23;100983.69;104120;1287;61542;-68
2022/04/26 15:54:52;;;;;;;6.10;3.10;;;;;;;18.13;41.76;100989.30;104191;1287;61224;-67
2022/04/26 15:57:19;;;;;;;5.90;3.20;;;;;;;17.90;41.84;100984.38;104200;1287;74963;-68
2022/04/26 15:59:48;;;;;;;4.50;3.30;;;;;;;17.70;42.59;100983.90;104254;1287;61236;-67
2022/04/26 16:02:23;;;;;;;6.10;3.10;;;;;;;17.50;43.29;100985.98;104091;1287;72972;-68
2022/04/26 16:04:50;;;;;;;5.60;3.50;;;;;;;17.34;43.97;100984.73;104181;1287;61211;-69
2022/04/26 16:07:18;;;;;;;5.90;3.70;;;;;;;17.21;43.95;100982.84;104317;1287;61832;-68
2022/04/26 16:20:49;;;;;;;6.90;3.30;;;;;;;16.49;45.22;100983.52;104365;1287;61810;-69
2022/04/26 16:23:16;;;;;;;5.50;3.70;;;;;;;16.34;45.37;100985.51;104196;1287;76204;-69
2022/04/26 16:25:42;;;;;;;5.80;3.20;;;;;;;16.20;45.29;100985.42;104201;1287;72388;-69
2022/04/26 16:28:09;;;;;;;7.00;4.00;;;;;;;16.08;45.63;100987.52;104293;1287;74579;-68
2022/04/26 16:30:42;;;;;;;4.60;3.10;;;;;;;16.02;46.32;100986.44;104197;1287;61718;-68
2022/04/26 16:33:16;;;;;;;5.40;3.10;;;;;;;15.99;46.51;100989.81;104431;1287;61540;-68
2022/04/26 16:35:48;;;;;;;4.70;3.00;;;;;;;15.96;46.96;100990.36;104274;1287;76167;-69
2022/04/26 16:38:17;;;;;;;5.10;3.00;;;;;;;15.92;47.05;100996.58;104602;1287;72813;-69
2022/04/26 16:40:46;;;;;;;5.00;2.70;;;;;;;15.88;47.52;100995.39;104318;1287;73206;-70
2022/04/26 16:43:22;;;;;;;4.30;3.00;;;;;;;15.84;47.89;100998.06;105652;1287;61394;-68
2022/04/26 16:45:49;;;;;;;6.80;3.40;;;;;;;15.76;48.07;101000.29;104195;1287;61379;-68
2022/04/26 16:48:22;;;;;;;5.90;3.50;;;;;;;15.73;48.28;101001.97;104166;1287;74689;-69
2022/04/26 16:50:58;;;;;;;3.60;2.20;;;;;;;15.67;48.26;101000.77;104216;1287;71812;-70
2022/04/26 16:53:25;;;;;;;5.70;3.00;;;;;;;15.56;47.90;101003.13;104055;1287;73025;-69
2022/04/26 16:55:55;;;;;;;5.00;3.50;;;;;;;15.47;48.29;101006.54;104251;1287;61649;-69
2022/04/26 16:58:22;;;;;;;11.80;3.50;;;;;;;15.38;48.70;101007.33;104059;1287;61818;-69
2022/04/26 17:00:54;;;;;;;5.50;3.80;;;;;;;15.31;49.15;101008.86;104371;1287;76272;-66
2022/04/26 17:03:21;;;;;;;4.80;2.70;;;;;;;15.22;49.43;101009.84;104128;1287;72740;-68
2022/04/26 17:05:47;;;;;;;4.90;3.20;;;;;;;15.11;50.00;101010.64;103979;1287;73940;-67
2022/04/26 17:08:16;;;;;;;5.50;3.50;;;;;;;15.02;50.22;101013.55;104188;1287;61868;-66
2022/04/26 17:10:50;;;;;;;7.30;3.80;;;;;;;14.97;50.47;101011.23;104257;1287;61403;-68
2022/04/26 17:13:17;;;;;;;4.90;3.20;;;;;;;14.93;50.53;101016.41;104338;1288;76197;-69
2022/04/26 17:15:46;;;;;;;7.70;3.70;;;;;;;14.91;50.31;101019.52;104207;1287;61504;-67
2022/04/26 17:18:14;;;;;;;5.20;3.50;;;;;;;14.88;50.13;101025.86;104016;1288;74540;-68
2022/04/26 17:20:44;;;;;;;6.30;2.90;;;;;;;14.83;50.04;101029.70;104258;1287;62065;-69
2022/04/26 17:23:11;;;;;;;6.40;3.90;;;;;;;14.75;50.59;101026.30;103955;1287;61717;-69
2022/04/26 17:25:37;;;;;;;5.40;3.80;;;;;;;14.68;50.94;101032.10;104375;1287;74952;-69
2022/04/26 17:28:23;;;;;;;4.50;2.90;;;;;;;14.62;51.04;101031.67;104249;1287;71210;-68
2022/04/26 17:30:59;;;;;;;6.40;3.30;;;;;;;14.57;51.27;101037.77;104138;1287;72986;-70
2022/04/26 17:33:26;;;;;;;5.90;2.80;;;;;;;14.53;52.07;101037.05;104230;1287;61404;-69
2022/04/26 17:35:53;;;;;;;4.70;2.80;;;;;;;14.47;52.59;101039.77;104137;1287;61387;-68
2022/04/26 17:38:25;;;;;;;4.50;3.20;;;;;;;14.43;53.32;101040.08;104190;1287;61408;-69
2022/04/26 17:40:59;;;;;;;5.90;3.40;;;;;;;14.40;53.70;101040.62;104501;1287;72240;-68
2022/04/26 17:43:40;;;;;;;4.90;3.50;;;;;;;14.36;54.04;101042.56;104181;1287;73799;-68
2022/04/26 17:46:11;;;;;;;5.50;2.80;;;;;;;14.30;54.28;101047.91;104264;1286;61321;-67
2022/04/26 17:48:38;;;;;;;5.50;3.80;;;;;;;14.24;54.76;101051.98;104341;1287;61862;-67
2022/04/26 17:51:05;;;;;;;10.10;3.20;;;;;;;14.20;55.15;101054.10;104223;1287;75352;-71
2022/04/26 17:56:35;;;;;;;4.00;2.90;;;;;;;14.07;55.89;101057.33;104146;1287;71830;-69
2022/04/26 17:59:02;;;;;;;5.00;3.20;;;;;;;14.00;55.93;101060.45;105234;1286;61332;-69
2022/04/26 18:01:35;;;;;;;3.70;2.60;;;;;;;13.93;56.16;101064.77;104269;1286;61348;-69
2022/04/26 18:04:03;;;;;;;4.20;3.30;;;;;;;13.81;56.46;101062.96;104334;1287;75054;-68
2022/04/26 18:06:30;;;;;;;4.20;2.40;;;;;;;13.71;56.62;101071.02;104295;1287;72391;-69
2022/04/26 18:08:59;;;;;;;4.40;2.90;;;;;;;13.58;57.09;101074.02;104202;1287;72803;-70
2022/04/26 18:11:29;;;;;;;5.00;3.30;;;;;;;13.49;57.57;101081.98;106025;1287;61438;-68
2022/04/26 18:13:56;;;;;;;6.90;3.40;;;;;;;13.38;58.01;101082.38;104323;1287;61236;-70
2022/04/26 18:16:23;;;;;;;3.90;2.60;;;;;;;13.29;58.44;101083.60;104270;1286;61323;-68
2022/04/26 18:18:50;;;;;;;4.70;3.20;;;;;;;13.21;58.91;101087.44;104388;1287;71733;-69
2022/04/26 18:21:26;;;;;;;5.00;3.50;;;;;;;13.13;59.01;101091.74;104122;1287;73971;-69
2022/04/26 18:23:53;;;;;;;7.50;2.90;;;;;;;13.03;59.59;101096.92;104388;1287;61318;-70
2022/04/26 18:26:21;;;;;;;6.80;3.50;;;;;;;12.96;59.50;101099.09;104335;1287;61379;-69
2022/04/26 18:28:52;;;;;;;5.80;3.90;;;;;;;12.90;59.61;101104.54;104389;1287;76433;-71
2022/04/26 18:31:23;;;;;;;11.20;3.90;;;;;;;12.86;59.76;101110.16;104766;1286;72431;-70
2022/04/26 18:33:51;;;;;;;5.50;4.10;;;;;;;12.81;59.65;101112.48;104333;1287;75209;-71
2022/04/26 18:36:20;;;;;;;8.40;4.30;;;;;;;12.77;59.62;101114.64;104359;1287;62031;-71
2022/04/26 18:38:52;;;;;;;7.00;4.80;;;;;;;12.72;59.75;101120.04;104103;1287;61707;-69
2022/04/26 18:41:21;;;;;;;6.90;4.60;;;;;;;12.66;60.12;101123.70;105599;1287;75406;-69
2022/04/26 18:43:53;;;;;;;7.50;3.70;;;;;;;12.58;60.40;101128.45;104318;1287;71248;-72
2022/04/26 18:46:20;;;;;;;7.00;4.10;;;;;;;12.50;60.61;101134.73;104266;1287;74009;-69
2022/04/26 18:48:48;;;;;;;6.30;3.40;;;;;;;12.41;61.20;101143.23;104188;1287;61415;-68
2022/04/26 18:51:15;;;;;;;6.30;4.30;;;;;;;12.29;62.58;101146.08;103904;1288;61237;-70
2022/04/26 18:53:49;;;;;;;5.60;3.80;;;;;;;12.14;63.94;101143.48;104418;1287;76128;-69
2022/04/26 18:56:16;;;;;;;6.40;3.40;;;;;;;11.98;65.03;101147.19;104258;1287;71919;-70
2022/04/26 18:58:43;;;;;;;6.30;4.00;;;;;;;11.82;66.66;101152.34;103822;1287;74321;-78
2022/04/26 19:01:12;;;;;;;7.00;4.10;;;;;;;11.70;67.09;101153.17;103953;1287;61982;-75
2022/04/26 19:03:42;;;;;;;7.50;3.80;;;;;;;11.59;67.35;101160.45;104045;1288;61489;-76
2022/04/26 19:06:12;;;;;;;8.00;4.80;;;;;;;11.46;68.65;101166.13;104165;1287;77219;-76
2022/04/26 19:08:39;;;;;;;7.90;5.10;;;;;;;11.37;68.39;101168.50;104895;1287;71294;-77